createdAt,value
2019-05-17T00:00:37.503Z,8.88
2019-05-17T00:03:06.912Z,8.96
2019-05-17T00:05:37.359Z,9.00
2019-05-17T00:08:07.766Z,9.02
2019-05-17T00:10:37.542Z,8.98
2019-05-17T00:13:07.577Z,9.06
2019-05-17T00:15:37.107Z,9.00
2019-05-17T00:18:06.791Z,9.07
2019-05-17T00:20:37.547Z,9.05
2019-05-17T00:23:07.038Z,9.19
2019-05-17T00:25:36.939Z,9.16
2019-05-17T00:28:07.299Z,9.12
2019-05-17T00:30:37.210Z,8.93
2019-05-17T00:33:07.849Z,8.98
2019-05-17T00:35:37.586Z,9.06
2019-05-17T00:38:06.789Z,9.08
2019-05-17T00:40:36.597Z,9.01
2019-05-17T00:43:06.857Z,8.93
2019-05-17T00:45:37.658Z,8.98
2019-05-17T00:48:06.558Z,8.90
2019-05-17T00:50:37.768Z,8.90
2019-05-17T00:53:07.174Z,8.91
2019-05-17T00:55:36.443Z,9.06
2019-05-17T00:58:06.673Z,9.10
2019-05-17T01:00:37.655Z,8.88
2019-05-17T01:03:07.007Z,9.03
2019-05-17T01:05:36.979Z,9.00
2019-05-17T01:08:07.364Z,9.04
2019-05-17T01:10:36.885Z,8.99
2019-05-17T01:13:06.854Z,9.07
2019-05-17T01:15:37.002Z,8.88
2019-05-17T01:18:07.249Z,8.78
2019-05-17T01:20:37.147Z,8.81
2019-05-17T01:23:07.735Z,8.62
2019-05-17T01:25:37.003Z,8.69
2019-05-17T01:28:07.589Z,8.91
2019-05-17T01:30:37.462Z,8.83
2019-05-17T01:33:06.927Z,8.95
2019-05-17T01:35:37.472Z,8.90
2019-05-17T01:38:07.372Z,8.92
2019-05-17T01:40:37.253Z,8.97
2019-05-17T01:43:07.924Z,8.94
2019-05-17T01:45:36.792Z,8.91
2019-05-17T01:48:07.447Z,8.99
2019-05-17T01:50:37.459Z,9.03
2019-05-17T01:53:07.331Z,9.06
2019-05-17T01:55:37.522Z,8.94
2019-05-17T01:58:07.567Z,8.88
2019-05-17T02:00:37.665Z,8.89
2019-05-17T02:03:07.301Z,9.03
2019-05-17T02:05:37.311Z,9.03
2019-05-17T02:08:07.000Z,9.01
2019-05-17T02:10:37.687Z,8.91
2019-05-17T02:13:06.745Z,9.00
2019-05-17T02:15:37.764Z,9.01
2019-05-17T02:18:06.983Z,8.93
2019-05-17T02:20:37.209Z,8.92
2019-05-17T02:23:07.284Z,8.82
2019-05-17T02:25:36.901Z,8.79
2019-05-17T02:28:06.065Z,8.88
2019-05-17T02:30:35.010Z,8.89
2019-05-17T02:33:04.435Z,8.81
2019-05-17T02:35:34.011Z,8.86
2019-05-17T02:38:03.339Z,8.93
2019-05-17T02:40:34.047Z,8.80
2019-05-17T02:43:03.484Z,8.80
2019-05-17T02:45:33.159Z,8.89
2019-05-17T02:48:03.895Z,8.88
2019-05-17T02:50:33.430Z,8.86
2019-05-17T02:53:04.476Z,8.74
2019-05-17T02:55:32.712Z,8.69
2019-05-17T02:58:02.949Z,8.74
2019-05-17T03:00:33.783Z,8.76
2019-05-17T03:03:03.441Z,8.88
2019-05-17T03:05:33.936Z,8.84
2019-05-17T03:08:04.164Z,8.92
2019-05-17T03:10:33.845Z,8.78
2019-05-17T03:13:04.012Z,8.73
2019-05-17T03:15:33.133Z,8.64
2019-05-17T03:18:03.717Z,8.56
2019-05-17T03:20:32.998Z,8.76
2019-05-17T03:23:03.902Z,8.72
2019-05-17T03:25:33.503Z,8.66
2019-05-17T03:28:03.266Z,8.62
2019-05-17T03:30:36.406Z,8.67
2019-05-17T03:33:06.967Z,8.74
2019-05-17T03:35:37.315Z,8.70
2019-05-17T03:38:05.107Z,8.78
2019-05-17T03:41:01.065Z,8.94
2019-05-17T03:43:04.499Z,8.86
2019-05-17T03:45:34.235Z,8.80
2019-05-17T03:48:04.739Z,8.89
2019-05-17T03:50:33.977Z,8.85
2019-05-17T03:53:02.910Z,8.86
2019-05-17T03:55:33.198Z,9.06
2019-05-17T03:58:03.249Z,9.10
2019-05-17T04:00:35.274Z,9.11
2019-05-17T04:03:03.426Z,9.02
2019-05-17T04:05:33.537Z,9.09
2019-05-17T04:08:03.449Z,9.14
2019-05-17T04:10:33.706Z,9.13
2019-05-17T04:13:04.289Z,9.14
2019-05-17T04:15:33.340Z,9.16
2019-05-17T04:18:04.093Z,9.18
2019-05-17T04:20:33.682Z,9.26
2019-05-17T04:23:03.934Z,9.20
2019-05-17T04:25:33.678Z,9.30
2019-05-17T04:28:03.361Z,9.27
2019-05-17T04:30:32.910Z,9.35
2019-05-17T04:33:03.632Z,9.23
2019-05-17T04:35:32.922Z,9.26
2019-05-17T04:38:04.023Z,9.40
2019-05-17T04:40:34.078Z,9.55
2019-05-17T04:43:03.350Z,9.64
2019-05-17T04:45:33.588Z,9.73
2019-05-17T04:48:04.112Z,9.86
2019-05-17T04:50:34.078Z,9.96
2019-05-17T04:53:03.179Z,10.08
2019-05-17T04:55:34.111Z,10.12
2019-05-17T04:58:04.205Z,10.22
2019-05-17T05:00:33.950Z,10.21
2019-05-17T05:03:04.355Z,10.34
2019-05-17T05:05:33.620Z,10.43
2019-05-17T05:08:03.342Z,10.43
2019-05-17T05:10:33.835Z,10.50
2019-05-17T05:13:03.425Z,10.62
2019-05-17T05:15:44.126Z,10.74
2019-05-17T05:18:13.564Z,10.84
2019-05-17T05:20:43.544Z,11.01
2019-05-17T05:23:13.343Z,11.13
2019-05-17T05:25:42.991Z,11.23
2019-05-17T05:28:12.175Z,11.21
2019-05-17T05:30:42.202Z,11.20
2019-05-17T05:33:12.790Z,11.22
2019-05-17T05:35:42.556Z,11.27
2019-05-17T05:38:12.964Z,11.32
2019-05-17T05:40:42.589Z,11.27
2019-05-17T05:43:11.908Z,11.17
2019-05-17T05:45:41.652Z,11.20
2019-05-17T05:48:12.729Z,11.18
2019-05-17T05:50:43.248Z,11.13
2019-05-17T05:53:12.857Z,11.02
2019-05-17T05:55:42.754Z,11.05
2019-05-17T05:58:12.380Z,11.09
2019-05-17T06:00:42.810Z,11.01
2019-05-17T06:03:12.299Z,11.00
2019-05-17T06:05:42.350Z,10.88
2019-05-17T06:08:12.153Z,10.81
2019-05-17T06:10:42.531Z,10.87
2019-05-17T06:13:13.227Z,10.85
2019-05-17T06:15:43.021Z,10.85
2019-05-17T06:18:12.512Z,10.76
2019-05-17T06:20:41.925Z,10.90
2019-05-17T06:23:12.322Z,11.04
2019-05-17T06:25:43.629Z,11.29
2019-05-17T06:28:11.834Z,11.45
2019-05-17T06:30:42.954Z,11.76
2019-05-17T06:33:11.927Z,11.93
2019-05-17T06:35:42.389Z,12.06
2019-05-17T06:38:12.115Z,12.25
2019-05-17T06:40:41.976Z,12.29
2019-05-17T06:43:13.161Z,12.41
2019-05-17T06:45:42.096Z,12.55
2019-05-17T06:48:11.784Z,12.53
2019-05-17T06:50:42.963Z,12.76
2019-05-17T06:53:12.325Z,12.75
2019-05-17T06:55:42.486Z,13.05
2019-05-17T06:58:11.879Z,13.37
2019-05-17T07:00:40.790Z,13.86
2019-05-17T07:03:09.808Z,14.08
2019-05-17T07:05:40.465Z,13.91
2019-05-17T07:08:10.864Z,14.03
2019-05-17T07:10:41.446Z,14.27
2019-05-17T07:13:10.869Z,14.33
2019-05-17T07:15:47.500Z,13.97
2019-05-17T07:18:10.659Z,14.44
2019-05-17T07:20:40.648Z,14.67
2019-05-17T07:23:10.690Z,14.43
2019-05-17T07:25:39.995Z,14.56
2019-05-17T07:28:09.980Z,14.53
2019-05-17T07:30:39.970Z,14.74
2019-05-17T07:33:10.362Z,14.89
2019-05-17T07:35:39.653Z,15.03
2019-05-17T07:38:10.607Z,15.45
2019-05-17T07:40:39.845Z,15.19
2019-05-17T07:43:13.922Z,15.01
2019-05-17T07:45:40.452Z,15.28
2019-05-17T07:48:10.030Z,15.33
2019-05-17T07:50:39.861Z,15.18
2019-05-17T07:53:10.294Z,15.15
2019-05-17T07:55:40.041Z,14.89
2019-05-17T07:58:10.058Z,15.10
2019-05-17T08:00:40.146Z,15.20
2019-05-17T08:03:12.621Z,15.08
2019-05-17T08:05:40.394Z,14.94
2019-05-17T08:08:09.789Z,14.83
2019-05-17T08:10:41.369Z,14.76
2019-05-17T08:13:25.071Z,14.95
2019-05-17T08:15:40.648Z,15.36
2019-05-17T08:18:10.915Z,15.66
2019-05-17T08:20:40.318Z,15.89
2019-05-17T08:23:10.492Z,15.82
2019-05-17T08:25:51.882Z,16.17
2019-05-17T08:28:10.957Z,16.19
2019-05-17T08:30:41.035Z,16.24
2019-05-17T08:33:10.860Z,15.99
2019-05-17T08:35:40.207Z,15.54
2019-05-17T08:38:10.414Z,15.38
2019-05-17T08:40:40.394Z,15.56
2019-05-17T08:43:10.203Z,15.33
2019-05-17T08:45:40.580Z,15.59
2019-05-17T08:48:09.817Z,15.91
2019-05-17T08:50:40.244Z,16.04
2019-05-17T08:53:10.656Z,16.17
2019-05-17T08:55:40.785Z,16.01
2019-05-17T08:58:10.513Z,16.26
2019-05-17T09:00:40.592Z,16.16
2019-05-17T09:03:10.664Z,16.52
2019-05-17T09:05:41.674Z,16.82
2019-05-17T09:08:11.444Z,16.87
2019-05-17T09:10:40.932Z,16.54
2019-05-17T09:13:14.392Z,16.34
2019-05-17T09:15:40.805Z,16.36
2019-05-17T09:18:10.003Z,16.60
2019-05-17T09:20:40.577Z,17.18
2019-05-17T09:23:09.873Z,17.28
2019-05-17T09:25:39.693Z,17.76
2019-05-17T09:28:10.157Z,17.70
2019-05-17T09:30:40.584Z,17.59
2019-05-17T09:33:11.260Z,17.55
2019-05-17T09:35:41.000Z,17.93
2019-05-17T09:38:10.297Z,18.17
2019-05-17T09:40:40.333Z,18.33
2019-05-17T09:43:10.202Z,18.25
2019-05-17T09:45:40.354Z,18.24
2019-05-17T09:48:10.686Z,18.11
2019-05-17T09:50:40.054Z,17.80
2019-05-17T09:53:10.794Z,17.50
2019-05-17T09:55:39.941Z,16.81
2019-05-17T09:58:13.392Z,16.87
2019-05-17T10:00:42.222Z,16.95
2019-05-17T10:03:10.904Z,17.25
2019-05-17T10:05:40.573Z,16.35
2019-05-17T10:08:10.837Z,16.08
2019-05-17T10:10:40.477Z,16.19
2019-05-17T10:13:10.054Z,16.27
2019-05-17T10:15:41.613Z,16.59
2019-05-17T10:18:13.800Z,16.57
2019-05-17T10:20:43.762Z,16.51
2019-05-17T10:23:12.543Z,17.06
2019-05-17T10:25:42.032Z,16.89
2019-05-17T10:28:10.735Z,16.59
2019-05-17T10:30:42.850Z,17.19
2019-05-17T10:33:11.953Z,17.84
2019-05-17T10:35:40.991Z,18.20
2019-05-17T10:38:10.583Z,18.55
2019-05-17T10:40:40.804Z,18.79
2019-05-17T10:43:10.268Z,19.86
2019-05-17T10:45:40.176Z,19.97
2019-05-17T10:48:10.238Z,19.79
2019-05-17T10:50:40.628Z,20.52
2019-05-17T10:53:10.283Z,20.65
2019-05-17T10:55:39.779Z,20.90
2019-05-17T10:58:10.123Z,21.01
2019-05-17T11:00:41.258Z,20.84
2019-05-17T11:03:10.475Z,20.86
2019-05-17T11:05:40.213Z,21.07
2019-05-17T11:08:10.815Z,21.22
2019-05-17T11:10:50.047Z,20.46
2019-05-17T11:13:40.766Z,20.46
2019-05-17T11:16:09.472Z,20.31
2019-05-17T11:18:42.368Z,20.12
2019-05-17T11:21:11.847Z,20.63
2019-05-17T11:23:43.693Z,20.69
2019-05-17T11:26:22.398Z,20.41
2019-05-17T11:28:53.522Z,19.78
2019-05-17T11:31:29.594Z,19.47
2019-05-17T11:34:00.660Z,19.10
2019-05-17T11:36:32.755Z,19.03
2019-05-17T11:39:02.836Z,18.78
2019-05-17T11:41:31.821Z,18.83
2019-05-17T11:44:03.207Z,18.60
2019-05-17T11:46:36.272Z,18.92
2019-05-17T11:49:02.801Z,19.38
2019-05-17T11:51:44.386Z,19.45
2019-05-17T11:54:15.378Z,19.45
2019-05-17T11:56:49.374Z,19.03
2019-05-17T11:59:18.636Z,18.66
2019-05-17T12:01:47.863Z,18.09
2019-05-17T12:04:21.709Z,17.72
2019-05-17T12:06:50.880Z,17.99
2019-05-17T12:09:19.963Z,18.07
2019-05-17T12:11:51.512Z,18.13
2019-05-17T12:14:20.531Z,18.19
2019-05-17T12:16:50.347Z,18.38
2019-05-17T12:19:20.340Z,18.97
2019-05-17T12:21:49.035Z,19.20
2019-05-17T12:24:17.719Z,19.80
2019-05-17T12:26:47.587Z,19.80
2019-05-17T12:29:16.403Z,19.21
2019-05-17T12:31:45.393Z,19.10
2019-05-17T12:34:14.727Z,19.00
2019-05-17T12:36:43.757Z,19.30
2019-05-17T12:39:12.857Z,19.41
2019-05-17T12:41:41.595Z,19.17
2019-05-17T12:44:10.265Z,19.41
2019-05-17T12:46:38.982Z,20.36
2019-05-17T12:49:07.742Z,21.28
2019-05-17T12:51:36.488Z,21.31
2019-05-17T12:54:05.334Z,20.14
2019-05-17T12:56:34.094Z,20.14
2019-05-17T12:59:02.873Z,19.80
2019-05-17T13:01:31.985Z,19.15
2019-05-17T13:04:00.664Z,19.23
2019-05-17T13:06:29.324Z,19.49
2019-05-17T13:08:58.014Z,19.83
2019-05-17T13:11:26.705Z,19.67
2019-05-17T13:13:55.603Z,19.88
2019-05-17T13:16:25.081Z,20.84
2019-05-17T13:18:53.825Z,22.25
2019-05-17T13:21:22.491Z,23.19
2019-05-17T13:23:52.628Z,23.79
2019-05-17T13:26:21.312Z,23.54
2019-05-17T13:28:50.022Z,22.94
2019-05-17T13:31:18.691Z,22.52
2019-05-17T13:33:47.386Z,22.50
2019-05-17T13:36:16.091Z,22.81
2019-05-17T13:38:44.817Z,22.41
2019-05-17T13:41:14.632Z,21.83
2019-05-17T13:43:43.330Z,21.81
2019-05-17T13:46:12.050Z,22.68
2019-05-17T13:48:40.896Z,23.35
2019-05-17T13:51:09.635Z,23.44
2019-05-17T13:53:38.225Z,23.02
2019-05-17T13:56:06.911Z,22.51
2019-05-17T13:58:36.035Z,22.53
2019-05-17T14:01:04.720Z,22.32
2019-05-17T14:03:33.401Z,21.18
2019-05-17T14:06:02.089Z,21.09
2019-05-17T14:08:30.764Z,21.52
2019-05-17T14:10:59.425Z,20.32
2019-05-17T14:13:28.192Z,20.32
2019-05-17T14:15:56.857Z,20.87
2019-05-17T14:18:25.525Z,20.74
2019-05-17T14:20:54.295Z,21.47
2019-05-17T14:23:23.020Z,21.37
2019-05-17T14:25:51.703Z,22.94
2019-05-17T14:28:20.368Z,23.78
2019-05-17T14:30:49.076Z,24.98
2019-05-17T14:33:17.759Z,24.90
2019-05-17T14:35:46.735Z,23.59
2019-05-17T14:38:15.486Z,22.52
2019-05-17T14:41:05.827Z,22.40
2019-05-17T14:43:14.693Z,21.98
2019-05-17T14:45:43.380Z,21.15
2019-05-17T14:48:12.399Z,21.58
2019-05-17T14:50:41.111Z,21.85
2019-05-17T14:53:09.759Z,21.34
2019-05-17T14:55:38.435Z,21.58
2019-05-17T14:58:07.116Z,21.75
2019-05-17T15:00:35.824Z,21.54
2019-05-17T15:03:07.453Z,21.50
2019-05-17T15:05:34.988Z,20.49
2019-05-17T15:08:03.705Z,19.87
2019-05-17T15:10:32.392Z,19.41
2019-05-17T15:13:01.747Z,19.02
2019-05-17T15:15:30.560Z,18.97
2019-05-17T15:17:59.242Z,18.88
2019-05-17T15:20:27.944Z,18.92
2019-05-17T15:22:57.036Z,18.75
2019-05-17T15:25:25.795Z,18.84
2019-05-17T15:27:54.477Z,18.80
2019-05-17T15:30:23.168Z,18.76
2019-05-17T15:32:51.866Z,18.62
2019-05-17T15:35:20.549Z,18.73
2019-05-17T15:37:49.548Z,18.83
2019-05-17T15:40:18.978Z,18.78
2019-05-17T15:42:47.706Z,18.95
2019-05-17T15:45:16.528Z,18.94
2019-05-17T15:47:45.211Z,19.00
2019-05-17T15:50:14.163Z,19.10
2019-05-17T15:52:42.823Z,19.15
2019-05-17T15:55:13.272Z,19.13
2019-05-17T15:57:41.942Z,18.79
2019-05-17T16:00:11.359Z,18.64
2019-05-17T16:02:40.065Z,18.35
2019-05-17T16:05:09.176Z,18.37
2019-05-17T16:07:37.881Z,18.37
2019-05-17T16:10:08.158Z,18.11
2019-05-17T16:12:36.913Z,17.92
2019-05-17T16:15:06.203Z,17.71
2019-05-17T16:17:35.234Z,17.49
2019-05-17T16:20:04.218Z,17.63
2019-05-17T16:22:32.898Z,17.82
2019-05-17T16:25:01.578Z,17.74
2019-05-17T16:27:30.339Z,17.70
2019-05-17T16:29:59.370Z,17.81
2019-05-17T16:32:28.098Z,17.78
2019-05-17T16:34:56.759Z,17.91
2019-05-17T16:37:25.446Z,18.23
2019-05-17T16:39:54.140Z,18.44
2019-05-17T16:42:22.827Z,18.38
2019-05-17T16:44:51.559Z,18.62
2019-05-17T16:47:20.312Z,18.94
2019-05-17T16:49:49.105Z,19.16
2019-05-17T16:52:17.775Z,19.33
2019-05-17T16:54:46.522Z,19.22
2019-05-17T16:57:15.206Z,19.52
2019-05-17T16:59:43.925Z,19.85
2019-05-17T17:02:12.741Z,20.37
2019-05-17T17:04:41.488Z,20.65
2019-05-17T17:07:10.273Z,21.62
2019-05-17T17:09:38.962Z,22.22
2019-05-17T17:12:07.654Z,23.49
2019-05-17T17:14:36.315Z,25.18
2019-05-17T17:17:10.841Z,25.73
2019-05-17T17:19:35.496Z,26.75
2019-05-17T17:22:04.162Z,26.52
2019-05-17T17:24:32.858Z,25.93
2019-05-17T17:27:01.533Z,25.17
2019-05-17T17:29:30.216Z,24.29
2019-05-17T17:31:58.907Z,23.61
2019-05-17T17:34:27.593Z,24.31
2019-05-17T17:36:56.268Z,26.03
2019-05-17T17:39:24.972Z,25.35
2019-05-17T17:41:53.933Z,23.83
2019-05-17T17:44:22.600Z,21.61
2019-05-17T17:46:51.315Z,19.72
2019-05-17T17:49:20.019Z,19.72
2019-05-17T17:51:48.700Z,19.11
2019-05-17T17:54:23.484Z,18.80
2019-05-17T17:56:59.200Z,18.52
2019-05-17T17:59:31.848Z,18.29
2019-05-17T18:02:01.748Z,17.91
2019-05-17T18:04:52.242Z,17.69
2019-05-17T18:07:21.669Z,17.60
2019-05-17T18:09:52.916Z,17.40
2019-05-17T18:12:25.104Z,17.49
2019-05-17T18:14:58.235Z,17.46
2019-05-17T18:17:39.715Z,17.35
2019-05-17T18:20:11.353Z,17.05
2019-05-17T18:22:41.603Z,16.66
2019-05-17T18:25:15.429Z,16.45
2019-05-17T18:27:48.525Z,16.25
2019-05-17T18:30:20.366Z,15.99
2019-05-17T18:32:55.968Z,15.85
2019-05-17T18:35:26.433Z,15.93
2019-05-17T18:37:58.533Z,16.31
2019-05-17T18:40:33.931Z,16.75
2019-05-17T18:43:10.156Z,16.67
2019-05-17T18:45:50.363Z,16.10
2019-05-17T18:48:20.329Z,15.38
2019-05-17T18:50:53.771Z,14.90
2019-05-17T18:53:34.787Z,14.46
2019-05-17T18:56:08.201Z,13.84
2019-05-17T18:58:50.198Z,13.35
2019-05-17T19:01:22.375Z,12.95
2019-05-17T19:03:56.902Z,12.60
2019-05-17T19:06:28.933Z,12.30
2019-05-17T19:08:59.369Z,11.95
2019-05-17T19:11:51.609Z,11.66
2019-05-17T19:14:24.321Z,11.40
2019-05-17T19:16:58.306Z,11.29
2019-05-17T19:19:28.636Z,11.25
2019-05-17T19:22:21.338Z,10.99
2019-05-17T19:24:56.343Z,10.84
2019-05-17T19:27:31.971Z,10.73
2019-05-17T19:30:05.293Z,10.78
2019-05-17T19:32:39.847Z,10.78
2019-05-17T19:35:12.710Z,10.78
2019-05-17T19:37:47.928Z,10.70
2019-05-17T19:40:19.892Z,10.69
2019-05-17T19:42:52.109Z,10.66
2019-05-17T19:45:21.123Z,10.74
2019-05-17T19:47:49.798Z,10.86
2019-05-17T19:50:19.029Z,10.91
2019-05-17T19:52:47.739Z,10.89
2019-05-17T19:55:16.544Z,10.87
2019-05-17T19:57:45.244Z,10.87
2019-05-17T20:00:14.757Z,10.82
2019-05-17T20:02:43.448Z,10.77
2019-05-17T20:05:13.057Z,10.55
2019-05-17T20:07:41.739Z,10.52
2019-05-17T20:10:12.376Z,10.59
2019-05-17T20:12:41.074Z,10.52
2019-05-17T20:15:17.158Z,10.44
2019-05-17T20:17:41.149Z,10.31
2019-05-17T20:20:10.072Z,10.14
2019-05-17T20:22:38.742Z,9.99
2019-05-17T20:25:08.201Z,9.91
2019-05-17T20:27:36.858Z,9.83
2019-05-17T20:30:06.887Z,9.73
2019-05-17T20:32:35.549Z,9.61
2019-05-17T20:35:04.419Z,9.55
2019-05-17T20:37:33.132Z,9.53
2019-05-17T20:40:01.819Z,9.45
2019-05-17T20:42:30.768Z,9.37
2019-05-17T20:44:59.460Z,9.28
2019-05-17T20:47:28.148Z,9.29
2019-05-17T20:49:57.155Z,9.24
2019-05-17T20:52:26.185Z,9.21
2019-05-17T20:54:55.436Z,9.20
2019-05-17T20:57:24.148Z,9.08
2019-05-17T20:59:52.812Z,8.95
2019-05-17T21:02:21.491Z,8.97
2019-05-17T21:04:50.179Z,8.79
2019-05-17T21:07:18.866Z,8.71
2019-05-17T21:09:47.529Z,8.52
2019-05-17T21:12:16.234Z,8.45
2019-05-17T21:14:44.929Z,8.27
2019-05-17T21:17:13.587Z,8.04
2019-05-17T21:19:42.250Z,8.28
2019-05-17T21:22:10.932Z,8.04
2019-05-17T21:24:39.610Z,7.90
2019-05-17T21:27:08.289Z,7.74
2019-05-17T21:29:36.957Z,7.89
2019-05-17T21:32:05.648Z,7.94
2019-05-17T21:34:34.337Z,7.96
2019-05-17T21:37:03.033Z,7.95
2019-05-17T21:39:31.715Z,8.01
2019-05-17T21:42:00.385Z,7.98
2019-05-17T21:44:29.064Z,7.97
2019-05-17T21:47:04.627Z,7.95
2019-05-17T21:49:28.136Z,7.84
2019-05-17T21:51:56.819Z,7.86
2019-05-17T21:54:25.486Z,7.82
2019-05-17T21:56:54.244Z,7.87
2019-05-17T21:59:22.915Z,7.91
2019-05-17T22:01:52.236Z,7.99
2019-05-17T22:04:20.909Z,7.91
2019-05-17T22:06:49.582Z,7.76
2019-05-17T22:09:18.291Z,7.85
2019-05-17T22:11:49.295Z,7.75
2019-05-17T22:14:17.956Z,7.53
2019-05-17T22:16:46.640Z,7.19
2019-05-17T22:19:15.409Z,6.98
2019-05-17T22:21:44.110Z,6.83
2019-05-17T22:24:12.828Z,6.84
2019-05-17T22:26:41.507Z,6.74
2019-05-17T22:29:10.168Z,6.75
2019-05-17T22:31:39.149Z,6.77
2019-05-17T22:34:07.834Z,6.62
2019-05-17T22:36:36.632Z,6.60
2019-05-17T22:39:06.772Z,6.54
2019-05-17T22:41:35.738Z,6.40
2019-05-17T22:44:04.521Z,6.31
2019-05-17T22:46:36.056Z,6.25
2019-05-17T22:49:03.738Z,6.39
2019-05-17T22:51:32.420Z,6.54
2019-05-17T22:54:01.096Z,6.73
2019-05-17T22:56:29.774Z,6.81
2019-05-17T22:58:58.442Z,6.80
2019-05-17T23:01:27.133Z,6.78
2019-05-17T23:03:55.788Z,6.77
2019-05-17T23:06:24.491Z,6.75
2019-05-17T23:08:53.176Z,6.72
2019-05-17T23:11:21.859Z,6.74
2019-05-17T23:13:50.555Z,6.71
2019-05-17T23:16:19.244Z,6.69
2019-05-17T23:19:05.916Z,6.67
2019-05-17T23:21:34.599Z,6.61
2019-05-17T23:24:03.717Z,6.47
2019-05-17T23:26:32.773Z,6.53
2019-05-17T23:29:02.194Z,6.42
2019-05-17T23:31:30.884Z,6.47
2019-05-17T23:33:59.572Z,6.49
2019-05-17T23:36:28.334Z,6.49
2019-05-17T23:38:57.044Z,6.41
2019-05-17T23:41:25.786Z,6.32
2019-05-17T23:43:54.488Z,6.49
2019-05-17T23:46:23.160Z,6.43
2019-05-17T23:48:51.838Z,6.48
2019-05-17T23:51:20.895Z,6.57
2019-05-17T23:53:49.892Z,6.62
2019-05-17T23:56:18.827Z,6.67
2019-05-17T23:58:47.520Z,6.71
